Harbinger, NC

10:31 AM EDT on May 28, 2015 (GMT -0400)
First Flight | | Change Station
CLOSE
Current Station
Airport
Location: Kill Devil Hills,
Elevation: 13 ft
Nearby Weather Stations

Elev 13 ft 36.02 °N, 75.67 °W | Updated 16 minutes ago

Overcast
Overcast
74 °F
Feels Like 74 °F
N
0
Wind Variable Wind from North

Today
High -- | Low -- °F
--% Chance of Precip.
Yesterday
High -- | Low -- °F
Precip. -- in
5:49 AM 8:12 PM
Waxing Gibbous, 76% visible
Pressure 30.26 in
Visibility -9999.0 miles
Clouds Overcast 2700 ft
Dew Point 63 °F
Humidity 69%
Rainfall 0.00 in
Snow Depth Not available.
UV 2 out of 12
Pollen 6.00 out of 12
Air Quality Not available.
Flu Activity No Activity
METAR KFFA 281415Z AUTO 00000KT OVC027 23/17 A3026 RMK AO2 T02340174 PWINO

More Conditions Fewer Conditions

Pressure 30.26 in
Visibility -9999.0 miles
Clouds Overcast 2700 ft
Dew Point 63 °F
Humidity 69%
Rainfall 0.00 in
Snow Depth Not available.
UV 2 out of 12
Pollen 6.00 out of 12
Air Quality Not available.
Flu Activity No Activity
METAR KFFA 281415Z AUTO 00000KT OVC027 23/17 A3026 RMK AO2 T02340174 PWINO

More Conditions Fewer Conditions

10-Day Weather Forecast

Almanac

Astronomy

May. 28, 2015 Rise Set
Actual Time
Civil Twilight
Nautical Twilight
Astronomical Twilight
Moon
Length of Visible Light
Length of Day
Tomorrow will be .
, % of the Moon is Illuminated

Today's Extremes

State Highs State Lows

Community

WunderPhotos

Upload Photos

1,824,988 photos uploaded!

WunderBlogs® & News

Nearby

Air Quality

  Air Quality AQ Index Pollutant
Not available.

Snow Depth

Station Depth Elevation

Earthquake Activity

City Distance Mag. Time & Date
Minimum magnitude displayed is 2.5.

Coastal Water Temperatures

Place Temperature

Stations

Nearby Weather Stations

Station Location Temp. Windchill Dew Point Humidity Wind Precip. Elev Updated Type